Time;durP1;ratioP1;P1;durP2;ratioP2;P2;SDS_P1;SDS_P2;PMS_P1;PMS_P2;Temp;Humidity;BMP_temperature;BMP_pressure;BME280_temperature;BME280_humidity;BME280_pressure;Samples;Min_cycle;Max_cycle;Signal;HPM_P1;HPM_P2
2021/07/23 00:01:39;;;;;;;33.17;18.35;;;;;;;14.07;100.00;98079.16;5097257;28;20486;-80
2021/07/23 00:04:06;;;;;;;30.48;18.00;;;;;;;14.05;100.00;98078.72;5115119;28;20094;-80
2021/07/23 00:06:33;;;;;;;35.28;17.88;;;;;;;13.96;100.00;98084.16;5096764;28;20070;-81
2021/07/23 00:09:00;;;;;;;29.48;18.45;;;;;;;13.87;100.00;98083.41;5096363;28;20127;-80
2021/07/23 00:11:29;;;;;;;33.35;19.55;;;;;;;13.79;100.00;98086.16;5114880;28;20039;-80
2021/07/23 00:13:55;;;;;;;36.42;19.55;;;;;;;13.73;100.00;98083.59;5119665;28;20054;-80
2021/07/23 00:16:24;;;;;;;32.80;18.48;;;;;;;13.71;100.00;98088.59;5096161;28;20048;-80
2021/07/23 00:18:51;;;;;;;33.95;19.60;;;;;;;13.79;100.00;98084.22;5113472;28;20048;-81
2021/07/23 00:21:17;;;;;;;34.75;18.80;;;;;;;13.79;100.00;98083.44;5114326;28;20055;-81
2021/07/23 00:23:44;;;;;;;32.80;19.05;;;;;;;13.75;100.00;98075.91;5113915;28;20065;-80
2021/07/23 00:26:12;;;;;;;32.55;17.65;;;;;;;13.74;100.00;98078.97;5114428;28;20063;-81
2021/07/23 00:28:40;;;;;;;34.13;18.67;;;;;;;13.68;100.00;98075.63;5113420;28;20160;-80
2021/07/23 00:31:06;;;;;;;34.08;18.85;;;;;;;13.62;100.00;98067.97;5114411;28;20224;-80
2021/07/23 00:33:33;;;;;;;37.03;18.65;;;;;;;13.59;100.00;98063.97;5114661;28;20052;-81
2021/07/23 00:36:01;;;;;;;34.97;18.77;;;;;;;13.61;100.00;98069.06;5096182;28;20039;-80
2021/07/23 00:38:27;;;;;;;30.38;18.30;;;;;;;13.66;100.00;98067.00;5097828;28;20051;-80
2021/07/23 00:40:54;;;;;;;35.58;17.85;;;;;;;13.70;100.00;98065.19;5119264;28;20044;-80
2021/07/23 00:43:23;;;;;;;38.50;18.17;;;;;;;13.70;100.00;98062.47;5121396;28;20043;-81
2021/07/23 00:45:50;;;;;;;37.72;17.90;;;;;;;13.72;100.00;98049.38;5115098;28;20036;-80
2021/07/23 00:48:17;;;;;;;33.15;17.95;;;;;;;13.84;100.00;98058.75;5113933;28;20452;-81
2021/07/23 00:50:45;;;;;;;33.60;17.30;;;;;;;13.91;100.00;98059.84;5096877;28;20043;-82
2021/07/23 00:53:12;;;;;;;30.60;17.42;;;;;;;14.01;100.00;98059.53;5118080;28;20541;-80
2021/07/23 00:55:42;;;;;;;33.38;16.67;;;;;;;14.07;100.00;98054.66;5119072;28;20089;-81
2021/07/23 00:58:09;;;;;;;27.98;16.60;;;;;;;14.09;100.00;98057.88;5118444;28;20075;-81
2021/07/23 01:00:36;;;;;;;33.05;17.23;;;;;;;14.14;100.00;98052.25;5100395;28;20043;-80
2021/07/23 01:03:05;;;;;;;33.38;17.65;;;;;;;14.08;100.00;98054.34;5118180;28;20078;-80
2021/07/23 01:05:34;;;;;;;30.85;17.55;;;;;;;14.16;100.00;98055.44;5100467;28;20050;-79
2021/07/23 01:08:01;;;;;;;35.60;17.13;;;;;;;14.17;100.00;98041.50;5099370;28;20047;-80
2021/07/23 01:10:28;;;;;;;34.70;17.88;;;;;;;14.21;100.00;98052.53;5117444;28;20047;-80
2021/07/23 01:12:55;;;;;;;33.25;18.02;;;;;;;14.23;100.00;98042.09;5118010;28;20047;-80
2021/07/23 01:15:21;;;;;;;33.40;18.13;;;;;;;14.25;100.00;98045.28;5116876;28;20043;-79
2021/07/23 01:17:48;;;;;;;36.78;17.58;;;;;;;14.21;100.00;98045.16;5117735;28;20097;-81
2021/07/23 01:20:17;;;;;;;35.95;18.42;;;;;;;14.19;100.00;98039.25;5117427;28;20505;-81
2021/07/23 01:22:44;;;;;;;32.10;18.52;;;;;;;14.23;100.00;98048.34;5117572;28;20036;-81
2021/07/23 01:25:12;;;;;;;33.40;17.75;;;;;;;14.25;100.00;98043.38;5118409;28;20112;-81
2021/07/23 01:27:51;;;;;;;34.20;17.30;;;;;;;14.33;100.00;98044.47;5086833;28;20044;-81
2021/07/23 01:30:23;;;;;;;34.05;18.48;;;;;;;14.42;100.00;98039.81;5103600;28;20048;-81
2021/07/23 01:32:51;;;;;;;31.95;18.00;;;;;;;14.43;100.00;98038.66;5122619;28;20493;-81
2021/07/23 01:35:18;;;;;;;32.42;18.23;;;;;;;14.40;100.00;98033.84;5122597;28;20044;-81
2021/07/23 01:37:46;;;;;;;31.40;18.80;;;;;;;14.43;100.00;98038.66;5106458;28;20058;-80
2021/07/23 01:40:14;;;;;;;32.65;18.88;;;;;;;14.52;100.00;98047.59;5090336;28;20047;-83
2021/07/23 01:42:46;;;;;;;39.08;20.15;;;;;;;14.54;100.00;98031.69;5105042;28;20039;-82
2021/07/23 01:45:13;;;;;;;33.70;18.98;;;;;;;14.58;100.00;98026.41;5122355;28;20143;-82
2021/07/23 01:47:39;;;;;;;35.40;20.20;;;;;;;14.63;100.00;98027.00;5120862;28;20330;-81
2021/07/23 01:50:06;;;;;;;36.85;19.83;;;;;;;14.68;100.00;98026.00;5121472;28;20058;-81
2021/07/23 01:52:34;;;;;;;39.78;20.08;;;;;;;14.67;100.00;98017.03;5103400;28;20085;-80
2021/07/23 01:55:01;;;;;;;34.28;21.17;;;;;;;14.74;100.00;98025.47;5102824;28;20078;-81
2021/07/23 01:57:28;;;;;;;36.70;21.38;;;;;;;14.71;100.00;98017.94;5122518;28;20050;-81
2021/07/23 01:59:57;;;;;;;33.47;20.15;;;;;;;14.79;100.00;98011.63;5121616;28;20089;-82
2021/07/23 02:02:24;;;;;;;38.10;21.38;;;;;;;14.79;100.00;98011.63;5121749;28;20048;-83
2021/07/23 02:04:50;;;;;;;38.75;21.52;;;;;;;14.84;100.00;98011.44;5121887;28;20040;-82
2021/07/23 02:07:17;;;;;;;36.28;20.67;;;;;;;14.88;100.00;98011.56;5105112;28;20077;-83
2021/07/23 02:09:44;;;;;;;40.03;21.25;;;;;;;14.88;100.00;98017.84;5121874;28;20115;-83
2021/07/23 02:12:11;;;;;;;33.15;20.85;;;;;;;14.88;100.00;98014.31;5122959;28;20407;-80
2021/07/23 02:14:37;;;;;;;34.30;20.60;;;;;;;14.81;100.00;98001.19;5123346;28;20100;-82
2021/07/23 02:17:04;;;;;;;36.33;21.58;;;;;;;14.81;100.00;98017.53;5122734;28;20044;-81
2021/07/23 02:19:33;;;;;;;33.95;19.67;;;;;;;14.87;100.00;98010.78;5122905;28;20044;-81
2021/07/23 02:21:59;;;;;;;40.40;21.40;;;;;;;14.86;100.00;98011.13;5122836;28;20047;-82
2021/07/23 02:24:26;;;;;;;43.75;23.10;;;;;;;14.90;100.00;98006.59;5121475;28;20059;-80
2021/07/23 02:26:53;;;;;;;44.30;26.63;;;;;;;14.85;100.00;98007.59;5110108;28;20057;-81
2021/07/23 02:29:20;;;;;;;51.08;27.30;;;;;;;14.87;100.00;98001.78;5128435;28;20061;-80
2021/07/23 02:31:49;;;;;;;47.17;26.63;;;;;;;14.87;100.00;98005.31;5129209;28;20043;-81
2021/07/23 02:34:16;;;;;;;45.47;26.08;;;;;;;14.95;100.00;97995.47;5128441;28;20043;-81
2021/07/23 02:36:43;;;;;;;40.30;23.73;;;;;;;14.97;100.00;97991.28;5130046;28;20048;-81
2021/07/23 02:39:09;;;;;;;46.03;24.73;;;;;;;14.93;100.00;97998.53;5129268;28;20261;-79
2021/07/23 02:41:36;;;;;;;46.53;24.50;;;;;;;14.96;100.00;97986.97;5128785;28;20046;-81
2021/07/23 02:44:03;;;;;;;44.53;22.42;;;;;;;14.97;100.00;97991.28;5128078;28;20077;-81
2021/07/23 02:46:32;;;;;;;39.83;22.10;;;;;;;15.06;100.00;97988.47;5109707;28;20040;-81
2021/07/23 02:48:58;;;;;;;40.75;21.83;;;;;;;15.11;100.00;97993.72;5126779;28;20043;-79
2021/07/23 02:51:25;;;;;;;34.92;21.17;;;;;;;15.10;100.00;97985.91;5125983;28;20097;-82
2021/07/23 02:53:52;;;;;;;36.92;21.95;;;;;;;15.16;100.00;97979.06;5125981;28;20051;-78
2021/07/23 02:56:18;;;;;;;39.10;21.75;;;;;;;15.21;100.00;97987.03;5108234;28;20039;-81
2021/07/23 02:58:46;;;;;;;34.92;21.23;;;;;;;15.20;100.00;97980.78;5127246;28;20187;-82
2021/07/23 03:01:13;;;;;;;38.63;22.85;;;;;;;15.26;100.00;97984.09;5127839;28;20073;-81
2021/07/23 03:03:40;;;;;;;42.55;21.80;;;;;;;15.28;100.00;97981.88;5126719;28;20031;-82
2021/07/23 03:06:07;;;;;;;40.92;21.40;;;;;;;15.29;100.00;97986.97;5126842;28;20039;-80
2021/07/23 03:08:33;;;;;;;39.08;21.95;;;;;;;15.28;100.00;97982.63;5124517;28;20056;-83
2021/07/23 03:11:02;;;;;;;39.45;20.67;;;;;;;15.34;100.00;97970.38;5125517;28;20055;-85
2021/07/23 03:13:31;;;;;;;37.17;21.10;;;;;;;15.31;100.00;97981.16;5124754;28;20062;-82
2021/07/23 03:15:57;;;;;;;37.63;21.20;;;;;;;15.28;100.00;97965.50;5106705;28;20047;-83
2021/07/23 03:18:24;;;;;;;41.50;21.70;;;;;;;15.27;100.00;97972.06;5123193;28;20062;-82
2021/07/23 03:20:51;;;;;;;39.35;21.98;;;;;;;15.21;100.00;97965.22;5122266;28;20039;-82
2021/07/23 03:23:17;;;;;;;41.85;22.55;;;;;;;15.18;100.00;97977.59;5122942;28;20468;-81
2021/07/23 03:25:44;;;;;;;40.80;21.95;;;;;;;15.11;100.00;97977.38;5125014;28;20050;-81
2021/07/23 03:28:11;;;;;;;34.70;21.50;;;;;;;15.12;100.00;97972.72;5125203;28;20044;-80
2021/07/23 03:30:38;;;;;;;39.25;21.95;;;;;;;15.06;100.00;97963.13;5125175;28;20470;-80
2021/07/23 03:33:05;;;;;;;38.90;21.65;;;;;;;15.10;100.00;97970.31;5125663;28;20104;-81
2021/07/23 03:35:31;;;;;;;35.38;21.55;;;;;;;15.08;100.00;97963.59;5126759;28;20031;-81
2021/07/23 03:37:57;;;;;;;41.97;22.25;;;;;;;15.13;100.00;97968.84;5123131;28;20062;-83
2021/07/23 03:40:26;;;;;;;36.47;21.40;;;;;;;15.07;100.00;97962.03;5121066;28;20130;-81
2021/07/23 03:42:55;;;;;;;38.40;21.60;;;;;;;15.02;100.00;97963.00;5104305;22;20048;-81
2021/07/23 03:45:22;;;;;;;39.88;21.98;;;;;;;15.04;100.00;97966.22;5071979;28;20421;-83
2021/07/23 03:47:51;;;;;;;40.03;22.13;;;;;;;15.04;100.00;97962.69;5071017;28;20044;-81
2021/07/23 03:50:18;;;;;;;39.10;21.73;;;;;;;15.04;100.00;97960.75;5065423;28;20043;-81
2021/07/23 03:52:46;;;;;;;35.35;22.15;;;;;;;15.03;100.00;97964.59;5075026;28;20100;-80
2021/07/23 03:55:20;;;;;;;37.05;21.48;;;;;;;15.05;100.00;97969.72;5075344;28;20040;-81
2021/07/23 03:57:50;;;;;;;45.80;22.20;;;;;;;15.06;100.00;97963.13;5058432;28;20040;-86
2021/07/23 04:00:17;;;;;;;37.50;21.88;;;;;;;15.12;100.00;97956.34;5091135;28;20077;-81
2021/07/23 04:03:00;;;;;;;40.80;21.60;;;;;;;15.16;100.00;97951.81;5076703;28;20352;-82
2021/07/23 04:05:28;;;;;;;36.90;21.15;;;;;;;15.12;100.00;97948.16;5094022;28;20568;-75
2021/07/23 04:07:57;;;;;;;39.40;22.13;;;;;;;15.26;100.00;97960.38;5111504;28;20432;-75
2021/07/23 04:10:27;;;;;;;36.50;20.85;;;;;;;15.34;100.00;97964.94;5092045;28;20047;-75
2021/07/23 04:12:56;;;;;;;35.22;20.27;;;;;;;15.39;100.00;97956.53;5074811;28;20496;-76
2021/07/23 04:15:23;;;;;;;39.40;21.20;;;;;;;15.49;100.00;97953.41;5109912;28;20044;-75
2021/07/23 04:18:40;;;;;;;;;;;;;;;;;;;;;
2021/07/23 04:22:18;;;;;;;34.90;19.63;;;;;;;15.54;100.00;97938.72;5011656;28;20044;-84
2021/07/23 04:25:29;;;;;;;32.38;19.70;;;;;;;15.62;100.00;97937.03;5080234;28;20050;-83
2021/07/23 04:36:32;;;;;;;29.73;19.25;;;;;;;15.58;100.00;97923.28;5016023;28;20052;-83
2021/07/23 04:43:27;;;;;;;31.10;20.10;;;;;;;15.57;100.00;97924.41;5108682;28;20472;-82
2021/07/23 04:58:47;;;;;;;36.67;18.98;;;;;;;16.16;100.00;97936.44;5121356;28;20052;-81
2021/07/23 05:01:24;;;;;;;33.92;18.65;;;;;;;16.39;100.00;97955.88;5085691;28;20047;-80
2021/07/23 05:03:53;;;;;;;34.88;18.88;;;;;;;16.50;100.00;97961.66;5076725;28;20040;-82
2021/07/23 05:06:23;;;;;;;36.47;18.73;;;;;;;16.68;100.00;97952.88;5062477;28;20044;-85
2021/07/23 05:08:52;;;;;;;33.53;17.38;;;;;;;16.74;100.00;97953.44;5045478;28;20045;-82
2021/07/23 05:11:22;;;;;;;31.70;18.80;;;;;;;16.63;100.00;97946.84;5063696;28;20095;-82
2021/07/23 05:14:02;;;;;;;38.60;18.90;;;;;;;16.68;100.00;97946.63;5057289;28;20102;-85
2021/07/23 05:16:36;;;;;;;40.72;18.70;;;;;;;16.75;100.00;97941.34;5060544;28;20116;-84
2021/07/23 05:19:17;;;;;;;35.42;17.73;;;;;;;16.85;100.00;97923.66;5060437;28;20101;-85
2021/07/23 05:21:48;;;;;;;34.22;17.80;;;;;;;16.94;100.00;97919.63;5061539;28;20056;-84
2021/07/23 05:24:15;;;;;;;31.92;17.38;;;;;;;17.18;100.00;97943.34;5060381;28;20052;-84
2021/07/23 05:26:45;;;;;;;42.20;17.38;;;;;;;17.20;100.00;97932.84;5058351;28;20522;-83
2021/07/23 05:29:12;;;;;;;58.33;18.27;;;;;;;17.41;100.00;97939.66;5059522;28;20052;-83
2021/07/23 05:31:44;;;;;;;49.38;18.20;;;;;;;17.54;100.00;97945.88;5074878;28;20120;-84
2021/07/23 05:34:11;;;;;;;57.00;17.42;;;;;;;17.64;100.00;97944.56;5057890;28;20155;-86
2021/07/23 05:36:40;;;;;;;34.72;16.77;;;;;;;17.71;100.00;97928.31;5058181;28;20044;-82
2021/07/23 05:39:07;;;;;;;46.42;17.27;;;;;;;17.78;100.00;97923.03;5074392;28;20167;-83
2021/07/23 05:41:37;;;;;;;39.72;17.25;;;;;;;17.65;100.00;97927.78;5059738;28;20101;-85
2021/07/23 05:44:05;;;;;;;44.53;18.60;;;;;;;17.68;100.00;97931.78;5058253;28;20083;-84
2021/07/23 05:46:35;;;;;;;39.90;17.35;;;;;;;17.90;100.00;97933.88;5054485;28;20068;-84
2021/07/23 05:49:04;;;;;;;38.85;16.67;;;;;;;18.11;100.00;97926.16;5058331;28;20059;-84
2021/07/23 05:51:33;;;;;;;34.63;17.38;;;;;;;18.23;100.00;97923.28;5073954;28;20118;-84
2021/07/23 05:54:50;;;;;;;39.13;16.65;;;;;;;18.22;100.00;97915.44;5040587;28;20076;-84
2021/07/23 05:57:20;;;;;;;34.35;16.63;;;;;;;18.37;100.00;97937.31;5074698;28;20089;-86
2021/07/23 05:59:50;;;;;;;32.80;16.00;;;;;;;18.75;100.00;97941.28;5060024;28;20052;-84
2021/07/23 06:02:17;;;;;;;30.83;16.38;;;;;;;18.75;100.00;97931.09;5059471;28;20044;-83
2021/07/23 06:04:43;;;;;;;29.65;16.73;;;;;;;18.75;100.00;97938.53;5068301;28;20048;-84
2021/07/23 06:07:14;;;;;;;28.35;17.52;;;;;;;18.43;100.00;97922.16;5069072;28;20028;-83
2021/07/23 06:09:48;;;;;;;35.95;17.92;;;;;;;18.46;100.00;97932.41;5076687;28;20040;-82
2021/07/23 06:12:24;;;;;;;33.40;16.98;;;;;;;18.53;100.00;97948.28;5077765;28;20398;-83
2021/07/23 06:14:55;;;;;;;33.38;17.58;;;;;;;18.67;100.00;97927.41;5060505;28;20056;-82
2021/07/23 06:17:27;;;;;;;27.98;16.35;;;;;;;18.98;100.00;97942.13;5060780;28;20052;-82
2021/07/23 06:19:54;;;;;;;27.73;16.77;;;;;;;19.12;100.00;97917.72;5060316;28;20044;-84
2021/07/23 06:22:21;;;;;;;28.20;16.08;;;;;;;19.23;100.00;97938.72;5059535;28;20048;-83
2021/07/23 06:24:48;;;;;;;31.63;16.80;;;;;;;19.46;100.00;97938.00;5058786;28;20052;-83
2021/07/23 06:27:19;;;;;;;31.17;16.05;;;;;;;19.58;100.00;97930.38;5059337;28;20048;-83
2021/07/23 06:29:48;;;;;;;30.42;15.50;;;;;;;19.80;100.00;97929.56;5075551;28;20042;-83
2021/07/23 06:32:15;;;;;;;38.08;16.27;;;;;;;20.04;100.00;97930.31;5090728;28;20033;-85
2021/07/23 06:34:42;;;;;;;32.75;16.50;;;;;;;20.11;100.00;97933.97;5055571;28;20060;-82
2021/07/23 06:37:11;;;;;;;27.13;15.13;;;;;;;20.31;100.00;97938.22;5054863;28;20232;-82
2021/07/23 06:39:40;;;;;;;26.33;16.23;;;;;;;20.39;100.00;97936.34;5054991;28;20050;-83
2021/07/23 06:42:13;;;;;;;30.77;16.25;;;;;;;20.66;100.00;97921.41;5064096;28;20072;-83
2021/07/23 06:44:40;;;;;;;34.78;15.43;;;;;;;20.15;100.00;97923.81;5056483;28;20139;-83
2021/07/23 06:47:10;;;;;;;24.15;14.35;;;;;;;20.48;100.00;97934.94;5039022;28;20414;-84
2021/07/23 06:49:40;;;;;;;26.42;15.48;;;;;;;20.78;100.00;97931.38;5039369;28;20044;-83
2021/07/23 06:52:10;;;;;;;28.13;15.05;;;;;;;20.93;100.00;97922.91;5039362;28;20052;-82
2021/07/23 06:54:51;;;;;;;25.17;14.90;;;;;;;21.01;100.00;97938.34;5058686;28;20486;-83
2021/07/23 06:57:26;;;;;;;26.70;15.35;;;;;;;21.08;100.00;97934.94;5059874;28;20509;-82
2021/07/23 06:59:55;;;;;;;25.52;14.68;;;;;;;21.34;100.00;97934.84;5044163;28;20505;-83
2021/07/23 07:02:21;;;;;;;21.30;14.50;;;;;;;21.47;100.00;97932.59;5044037;28;20074;-84
2021/07/23 07:04:51;;;;;;;30.50;16.02;;;;;;;21.46;100.00;97926.28;5061283;28;20049;-85
2021/07/23 07:07:31;;;;;;;27.00;16.30;;;;;;;21.66;100.00;97932.38;5078169;28;20074;-84
2021/07/23 07:10:02;;;;;;;29.73;15.00;;;;;;;21.61;100.00;97922.47;5060294;28;20075;-82
2021/07/23 07:13:06;;;;;;;32.45;16.50;;;;;;;21.43;100.00;97915.22;5073028;28;20127;-81
2021/07/23 07:15:41;;;;;;;44.70;18.73;;;;;;;20.88;100.00;97928.75;5054438;28;20476;-81
2021/07/23 07:18:14;;;;;;;45.25;17.27;;;;;;;20.71;100.00;97923.84;5055481;28;20454;-81
2021/07/23 07:20:44;;;;;;;33.05;18.23;;;;;;;20.55;100.00;97931.47;5040052;28;20052;-81
2021/07/23 07:23:21;;;;;;;56.10;20.25;;;;;;;20.48;100.00;97928.63;5038890;28;20052;-83
2021/07/23 07:25:50;;;;;;;53.90;20.20;;;;;;;20.63;100.00;97938.66;5071673;28;20409;-82
2021/07/23 07:28:19;;;;;;;61.72;19.83;;;;;;;20.61;100.00;97932.75;5039855;28;20044;-82
2021/07/23 07:31:00;;;;;;;43.55;19.80;;;;;;;20.55;100.00;97917.72;5038994;28;20059;-82
2021/07/23 07:33:30;;;;;;;50.92;18.60;;;;;;;20.78;100.00;97921.16;5055553;28;20044;-81
2021/07/23 07:36:08;;;;;;;36.30;19.17;;;;;;;20.71;100.00;97925.78;5054830;28;20049;-82
2021/07/23 07:38:47;;;;;;;41.75;19.30;;;;;;;20.55;100.00;97917.72;5038203;28;20052;-82
2021/07/23 07:41:17;;;;;;;36.15;18.52;;;;;;;20.88;100.00;97925.22;5055403;28;20230;-82
2021/07/23 07:43:50;;;;;;;37.80;18.38;;;;;;;20.88;100.00;97923.25;5071197;28;20520;-81
2021/07/23 07:46:46;;;;;;;40.67;18.95;;;;;;;20.98;100.00;97919.06;5039365;28;20045;-82
2021/07/23 07:49:19;;;;;;;31.95;17.65;;;;;;;21.01;100.00;97912.78;5043153;28;20055;-83
2021/07/23 07:52:03;;;;;;;;;;;;;;;21.22;100.00;97921.31;5046927;28;20044;-83
2021/07/23 07:54:31;;;;;;;32.45;18.33;;;;;;;21.47;100.00;97911.31;5059779;28;20015;-83
2021/07/23 07:57:17;;;;;;;32.45;18.75;;;;;;;21.72;100.00;97920.63;5042859;28;20044;-84
2021/07/23 07:59:53;;;;;;;31.38;16.85;;;;;;;21.68;100.00;97905.22;5054895;28;20676;-83
2021/07/23 08:02:20;;;;;;;28.55;16.02;;;;;;;22.12;100.00;97902.44;5040529;28;20053;-85
2021/07/23 08:04:51;;;;;;;28.20;16.52;;;;;;;22.27;100.00;97895.84;5064347;28;20083;-87
2021/07/23 08:07:21;;;;;;;31.13;17.02;;;;;;;22.49;100.00;97910.53;5068288;28;20045;-86
2021/07/23 08:09:53;;;;;;;31.77;16.90;;;;;;;22.75;100.00;97915.81;5071308;28;20074;-86
2021/07/23 08:12:35;;;;;;;27.25;18.00;;;;;;;22.77;100.00;97903.22;5071669;28;20041;-84
2021/07/23 08:15:05;;;;;;;31.17;18.20;;;;;;;22.79;100.00;97894.53;5070280;28;20079;-86
2021/07/23 08:17:32;;;;;;;29.77;17.15;;;;;;;22.80;100.00;97899.69;5091659;28;20024;-87
2021/07/23 08:20:10;;;;;;;27.70;18.33;;;;;;;22.82;100.00;97905.59;5073442;28;20071;-86
2021/07/23 08:22:43;;;;;;;30.73;17.58;;;;;;;22.84;100.00;97894.94;5073803;28;20071;-84
2021/07/23 08:25:22;;;;;;;31.05;18.73;;;;;;;23.05;100.00;97899.75;5053175;28;20060;-82
2021/07/23 08:27:59;;;;;;;27.77;18.05;;;;;;;23.26;100.00;97905.34;5039518;28;20106;-84
2021/07/23 08:30:26;;;;;;;33.08;18.80;;;;;;;23.23;100.00;97884.00;5053435;28;20051;-84
2021/07/23 08:32:53;;;;;;;31.63;18.88;;;;;;;23.21;100.00;97883.63;5037841;28;20242;-86
2021/07/23 08:35:26;;;;;;;20.40;13.98;;;;;;;23.31;100.00;97877.31;5043240;28;20044;-84
2021/07/23 08:38:10;;;;;;;25.05;14.75;;;;;;;23.41;100.00;97873.81;5043096;28;20069;-89
2021/07/23 08:40:41;;;;;;;23.05;14.73;;;;;;;23.62;100.00;97888.84;5029487;28;20112;-88
2021/07/23 08:43:11;;;;;;;22.23;13.63;;;;;;;23.45;100.00;97880.16;5039032;28;20052;-85
2021/07/23 08:45:58;;;;;;;21.95;13.27;;;;;;;23.68;100.00;97882.53;5039213;28;20059;-86
2021/07/23 08:48:27;;;;;;;21.05;12.88;;;;;;;23.70;100.00;97893.19;5042629;28;20349;-84
2021/07/23 08:50:54;;;;;;;23.08;12.65;;;;;;;23.94;100.00;97884.09;5072788;28;20045;-85
2021/07/23 08:53:20;;;;;;;22.02;12.75;;;;;;;24.27;100.00;97886.44;5054050;28;20049;-85
2021/07/23 08:56:01;;;;;;;18.10;12.15;;;;;;;24.36;100.00;97883.28;5037594;28;20041;-86
2021/07/23 08:58:37;;;;;;;19.40;12.55;;;;;;;24.33;100.00;97871.03;5055281;28;20555;-85
2021/07/23 09:01:18;;;;;;;19.45;13.07;;;;;;;24.02;100.00;97871.84;5058855;28;20045;-85
2021/07/23 09:07:14;;;;;;;19.02;13.13;;;;;;;24.26;100.00;97881.31;5082643;28;20040;-85
2021/07/23 09:10:14;;;;;;;24.90;12.93;;;;;;;24.42;100.00;97874.16;5047028;28;20061;-86
2021/07/23 09:13:10;;;;;;;19.00;13.23;;;;;;;24.77;100.00;97882.34;5060245;28;20123;-85
2021/07/23 09:15:43;;;;;;;22.15;12.70;;;;;;;24.82;100.00;97872.84;5060569;28;20052;-85
2021/07/23 09:18:29;;;;;;;21.45;14.50;;;;;;;24.93;100.00;97881.88;5040359;28;20045;-85
2021/07/23 09:21:16;;;;;;;20.23;13.45;;;;;;;25.02;100.00;97885.00;5045270;28;20059;-88
2021/07/23 09:23:43;;;;;;;25.73;12.73;;;;;;;25.27;100.00;97865.47;5043174;28;20075;-88
2021/07/23 09:26:15;;;;;;;23.23;13.27;;;;;;;25.20;100.00;97876.59;5043419;28;20048;-84
2021/07/23 09:28:52;;;;;;;21.70;13.82;;;;;;;24.99;100.00;97868.41;5062264;28;20052;-85
2021/07/23 09:31:24;;;;;;;20.92;14.50;;;;;;;25.53;100.00;97859.38;5065231;28;20436;-84
2021/07/23 09:34:05;;;;;;;19.02;13.63;;;;;;;25.60;100.00;97873.19;5061529;28;20048;-85
2021/07/23 09:36:36;;;;;;;22.73;13.80;;;;;;;24.95;100.00;97851.03;5042262;28;20074;-85
2021/07/23 09:39:23;;;;;;;24.10;14.00;;;;;;;25.75;100.00;97869.09;5042910;28;20056;-84
2021/07/23 09:42:01;;;;;;;19.33;13.43;;;;;;;26.23;91.55;97857.19;5039970;28;20053;-85
2021/07/23 09:44:34;;;;;;;23.02;13.80;;;;;;;26.40;85.04;97854.19;5054723;28;20104;-84
2021/07/23 09:47:23;;;;;;;22.52;12.38;;;;;;;26.90;74.81;97859.97;5025140;28;20040;-84
2021/07/23 09:49:51;;;;;;;22.13;12.15;;;;;;;26.35;81.18;97851.88;5040489;28;20045;-86
2021/07/23 09:52:21;;;;;;;20.75;12.15;;;;;;;26.72;68.46;97861.38;5042125;28;20045;-84
2021/07/23 09:54:57;;;;;;;19.48;12.05;;;;;;;27.95;54.01;97842.88;5072363;28;20060;-83
2021/07/23 09:57:31;;;;;;;20.33;11.68;;;;;;;28.46;54.23;97846.34;5040515;28;20044;-84
2021/07/23 10:00:23;;;;;;;21.58;10.57;;;;;;;29.30;51.19;97844.56;5042611;28;20045;-84
2021/07/23 10:02:55;;;;;;;17.05;10.98;;;;;;;29.79;46.31;97845.41;5054229;28;20483;-84
2021/07/23 10:05:41;;;;;;;16.52;11.20;;;;;;;30.34;44.60;97835.97;5055236;28;20140;-83
2021/07/23 10:08:23;;;;;;;16.10;11.35;;;;;;;30.79;45.53;97831.09;5049978;28;20055;-85
2021/07/23 10:11:20;;;;;;;17.40;11.25;;;;;;;30.37;43.10;97832.34;5035174;28;20563;-85
2021/07/23 10:13:56;;;;;;;18.73;11.13;;;;;;;31.23;43.55;97825.84;5041236;28;20048;-86
2021/07/23 10:16:51;;;;;;;17.75;11.73;;;;;;;31.87;41.02;97825.34;5057600;28;20045;-83
2021/07/23 10:19:38;;;;;;;18.13;12.07;;;;;;;32.97;38.31;97818.59;5029685;28;20049;-82
2021/07/23 10:27:31;;;;;;;18.27;12.15;;;;;;;32.16;40.38;97807.59;4990830;28;20109;-87
2021/07/23 10:30:28;;;;;;;16.33;12.25;;;;;;;32.01;40.70;97808.06;5020851;28;20510;-87
2021/07/23 10:32:58;;;;;;;14.73;11.40;;;;;;;32.69;39.92;97805.66;5014489;28;20057;-85
2021/07/23 10:35:33;;;;;;;16.50;12.40;;;;;;;32.47;39.89;97800.00;5017517;28;20265;-81
2021/07/23 10:38:23;;;;;;;16.88;12.18;;;;;;;33.23;37.95;97803.94;4991670;28;20142;-83
2021/07/23 10:41:09;;;;;;;14.20;10.88;;;;;;;34.15;34.77;97805.75;5032424;28;20063;-83
2021/07/23 10:43:46;;;;;;;15.07;10.35;;;;;;;33.53;35.95;97790.28;5080732;28;20040;-82
2021/07/23 10:46:47;;;;;;;14.10;10.95;;;;;;;35.11;37.69;97793.75;5066038;28;20066;-83
2021/07/23 10:49:31;;;;;;;15.73;10.27;;;;;;;33.85;35.42;97789.78;5071796;28;20043;-86
2021/07/23 10:52:03;;;;;;;14.88;11.68;;;;;;;34.80;35.34;97784.78;5063958;28;20058;-83
2021/07/23 10:55:10;;;;;;;17.67;11.05;;;;;;;34.61;37.53;97786.84;5062403;28;20086;-86
2021/07/23 10:57:37;;;;;;;15.75;10.85;;;;;;;35.08;34.00;97777.81;5060506;28;20049;-83
2021/07/23 11:00:09;;;;;;;14.43;10.93;;;;;;;34.69;35.71;97782.44;5089692;28;20048;-86
2021/07/23 11:02:43;;;;;;;18.20;12.32;;;;;;;35.14;33.27;97775.16;5053971;28;20059;-83
2021/07/23 11:05:19;;;;;;;17.30;13.27;;;;;;;34.35;34.55;97780.75;5056710;28;20051;-84
2021/07/23 11:07:58;;;;;;;14.55;11.20;;;;;;;33.92;37.66;97771.81;5072969;28;20100;-83
2021/07/23 11:10:28;;;;;;;15.95;11.43;;;;;;;35.36;32.70;97767.25;5042714;28;20048;-84
2021/07/23 11:13:12;;;;;;;14.25;10.63;;;;;;;36.40;31.79;97776.38;5056800;28;20532;-83
2021/07/23 11:15:44;;;;;;;13.50;10.07;;;;;;;36.28;33.16;97760.53;5039647;28;20052;-84
2021/07/23 11:18:15;;;;;;;19.45;10.55;;;;;;;35.12;33.62;97772.81;5054469;28;20075;-83
2021/07/23 11:20:48;;;;;;;17.42;10.63;;;;;;;36.63;32.18;97771.94;5055058;28;20048;-84
2021/07/23 11:23:30;;;;;;;15.95;11.43;;;;;;;35.21;32.61;97775.59;5070856;28;20060;-84
2021/07/23 11:26:50;;;;;;;19.92;11.18;;;;;;;33.77;34.57;97766.03;5055300;28;20050;-82
2021/07/23 11:29:31;;;;;;;14.65;10.63;;;;;;;35.10;35.17;97763.28;5054233;28;20180;-82
2021/07/23 11:32:04;;;;;;;17.42;10.23;;;;;;;36.99;32.03;97765.16;5056715;28;20037;-84
2021/07/23 11:34:38;;;;;;;14.75;10.32;;;;;;;37.25;31.57;97741.44;5072766;28;20086;-84
2021/07/23 11:37:21;;;;;;;13.77;9.93;;;;;;;39.22;30.24;97756.09;5069849;28;20581;-84
2021/07/23 11:40:25;;;;;;;16.95;9.95;;;;;;;37.35;30.19;97745.69;5062668;28;20047;-82
2021/07/23 11:43:19;;;;;;;13.52;10.00;;;;;;;38.32;29.79;97752.91;5039715;28;20060;-84
2021/07/23 11:46:11;;;;;;;13.88;9.48;;;;;;;38.69;29.20;97736.78;5041160;28;20124;-86
2021/07/23 11:48:51;;;;;;;13.35;9.95;;;;;;;38.99;28.51;97740.97;5058729;28;20491;-83
2021/07/23 11:51:40;;;;;;;11.85;9.77;;;;;;;39.15;28.29;97728.97;5056106;28;20047;-83
2021/07/23 11:54:18;;;;;;;12.68;9.88;;;;;;;35.47;31.21;97725.22;5037067;28;20102;-80
2021/07/23 11:57:07;;;;;;;15.43;10.25;;;;;;;33.36;34.56;97727.25;5055368;28;20310;-83
2021/07/23 11:59:38;;;;;;;13.25;9.88;;;;;;;32.33;38.38;97722.06;5055882;28;20449;-81
2021/07/23 12:02:09;;;;;;;15.23;10.27;;;;;;;34.31;35.09;97721.09;5073655;28;20067;-82
2021/07/23 12:04:41;;;;;;;14.50;8.98;;;;;;;36.94;32.86;97726.28;5039381;28;20068;-82
2021/07/23 12:07:19;;;;;;;12.48;9.35;;;;;;;37.09;30.89;97715.78;5074301;28;20043;-83
2021/07/23 12:09:48;;;;;;;15.10;10.38;;;;;;;34.18;35.42;97725.31;5072208;28;20071;-85
2021/07/23 12:12:15;;;;;;;12.65;10.05;;;;;;;32.70;35.86;97734.31;5058559;28;20071;-82
2021/07/23 12:14:51;;;;;;;13.77;10.73;;;;;;;31.17;38.34;97721.31;5057408;28;20052;-79